sensor_id;sensor_type;location;lat;lon;timestamp;pressure;altitude;pressure_sealevel;temperature;humidity
68226;BME280;55045;49.410;11.030;2023-08-21T00:02:01;98503.41;;;23.85;100.00
68226;BME280;55045;49.410;11.030;2023-08-21T00:05:04;98495.78;;;23.82;100.00
68226;BME280;55045;49.410;11.030;2023-08-21T00:08:09;98506.13;;;23.76;100.00
68226;BME280;55045;49.410;11.030;2023-08-21T00:11:13;98507.00;;;23.67;100.00
68226;BME280;55045;49.410;11.030;2023-08-21T00:14:16;98509.81;;;23.65;100.00
68226;BME280;55045;49.410;11.030;2023-08-21T00:17:19;98504.81;;;23.62;100.00
68226;BME280;55045;49.410;11.030;2023-08-21T00:20:23;98512.31;;;23.57;100.00
68226;BME280;55045;49.410;11.030;2023-08-21T00:23:28;98519.72;;;23.53;100.00
68226;BME280;55045;49.410;11.030;2023-08-21T00:26:31;98522.38;;;23.53;100.00
68226;BME280;55045;49.410;11.030;2023-08-21T00:29:36;98514.72;;;23.50;100.00
68226;BME280;55045;49.410;11.030;2023-08-21T00:32:40;98517.06;;;23.53;100.00
68226;BME280;55045;49.410;11.030;2023-08-21T00:35:43;98513.97;;;23.58;100.00
68226;BME280;55045;49.410;11.030;2023-08-21T00:38:48;98517.75;;;23.65;100.00
68226;BME280;55045;49.410;11.030;2023-08-21T00:41:51;98513.44;;;23.64;100.00
68226;BME280;55045;49.410;11.030;2023-08-21T00:44:54;98504.50;;;23.65;100.00
68226;BME280;55045;49.410;11.030;2023-08-21T00:47:58;98510.34;;;23.69;100.00
68226;BME280;55045;49.410;11.030;2023-08-21T00:51:01;98520.97;;;23.59;100.00
68226;BME280;55045;49.410;11.030;2023-08-21T00:54:06;98516.41;;;23.51;100.00
68226;BME280;55045;49.410;11.030;2023-08-21T00:57:10;98515.41;;;23.52;100.00
68226;BME280;55045;49.410;11.030;2023-08-21T01:00:13;98520.56;;;23.54;100.00
68226;BME280;55045;49.410;11.030;2023-08-21T01:03:17;98526.00;;;23.52;100.00
68226;BME280;55045;49.410;11.030;2023-08-21T01:06:21;98557.09;;;23.50;100.00
68226;BME280;55045;49.410;11.030;2023-08-21T01:09:31;98564.72;;;23.53;100.00
68226;BME280;55045;49.410;11.030;2023-08-21T01:12:41;98548.25;;;23.69;100.00
68226;BME280;55045;49.410;11.030;2023-08-21T01:15:47;98541.75;;;23.91;100.00
68226;BME280;55045;49.410;11.030;2023-08-21T01:18:54;98536.38;;;24.01;100.00
68226;BME280;55045;49.410;11.030;2023-08-21T01:21:59;98544.00;;;23.86;100.00
68226;BME280;55045;49.410;11.030;2023-08-21T01:25:04;98548.75;;;23.82;100.00
68226;BME280;55045;49.410;11.030;2023-08-21T01:28:09;98549.91;;;23.70;100.00
68226;BME280;55045;49.410;11.030;2023-08-21T01:31:15;98549.22;;;23.68;100.00
68226;BME280;55045;49.410;11.030;2023-08-21T01:34:23;98540.75;;;23.55;100.00
68226;BME280;55045;49.410;11.030;2023-08-21T01:37:26;98539.97;;;23.35;100.00
68226;BME280;55045;49.410;11.030;2023-08-21T01:40:32;98544.25;;;23.46;100.00
68226;BME280;55045;49.410;11.030;2023-08-21T01:43:35;98543.00;;;23.50;100.00
68226;BME280;55045;49.410;11.030;2023-08-21T01:46:39;98545.53;;;23.42;100.00
68226;BME280;55045;49.410;11.030;2023-08-21T01:49:43;98545.91;;;23.19;100.00
68226;BME280;55045;49.410;11.030;2023-08-21T01:52:47;98537.97;;;23.19;100.00
68226;BME280;55045;49.410;11.030;2023-08-21T01:55:52;98535.25;;;23.29;100.00
68226;BME280;55045;49.410;11.030;2023-08-21T01:58:55;98541.44;;;23.20;100.00
68226;BME280;55045;49.410;11.030;2023-08-21T02:01:58;98540.72;;;23.18;100.00
68226;BME280;55045;49.410;11.030;2023-08-21T02:05:02;98542.69;;;23.16;100.00
68226;BME280;55045;49.410;11.030;2023-08-21T02:08:12;98548.28;;;23.03;100.00
68226;BME280;55045;49.410;11.030;2023-08-21T02:11:16;98546.91;;;22.99;100.00
68226;BME280;55045;49.410;11.030;2023-08-21T02:14:20;98553.97;;;22.98;100.00
68226;BME280;55045;49.410;11.030;2023-08-21T02:17:25;98547.59;;;23.01;100.00
68226;BME280;55045;49.410;11.030;2023-08-21T02:20:29;98546.91;;;22.99;100.00
68226;BME280;55045;49.410;11.030;2023-08-21T02:23:32;98549.13;;;22.94;100.00
68226;BME280;55045;49.410;11.030;2023-08-21T02:26:36;98548.59;;;22.90;100.00
68226;BME280;55045;49.410;11.030;2023-08-21T02:29:40;98544.66;;;22.94;100.00
68226;BME280;55045;49.410;11.030;2023-08-21T02:32:43;98544.97;;;22.91;100.00
68226;BME280;55045;49.410;11.030;2023-08-21T02:35:48;98548.84;;;22.87;100.00
68226;BME280;55045;49.410;11.030;2023-08-21T02:38:51;98555.13;;;22.86;100.00
68226;BME280;55045;49.410;11.030;2023-08-21T02:41:56;98557.06;;;22.84;100.00
68226;BME280;55045;49.410;11.030;2023-08-21T02:45:01;98549.25;;;22.73;100.00
68226;BME280;55045;49.410;11.030;2023-08-21T02:48:10;98559.84;;;22.83;100.00
68226;BME280;55045;49.410;11.030;2023-08-21T02:51:13;98556.25;;;22.84;100.00
68226;BME280;55045;49.410;11.030;2023-08-21T02:54:16;98555.38;;;22.74;100.00
68226;BME280;55045;49.410;11.030;2023-08-21T02:57:21;98558.47;;;22.69;100.00
68226;BME280;55045;49.410;11.030;2023-08-21T03:00:24;98559.53;;;22.66;100.00
68226;BME280;55045;49.410;11.030;2023-08-21T03:03:27;98553.03;;;22.80;100.00
68226;BME280;55045;49.410;11.030;2023-08-21T03:06:30;98554.00;;;22.69;100.00
68226;BME280;55045;49.410;11.030;2023-08-21T03:09:35;98559.16;;;22.61;100.00
68226;BME280;55045;49.410;11.030;2023-08-21T03:12:41;98559.16;;;22.61;100.00
68226;BME280;55045;49.410;11.030;2023-08-21T03:15:45;98564.28;;;22.53;100.00
68226;BME280;55045;49.410;11.030;2023-08-21T03:18:55;98566.78;;;22.45;100.00
68226;BME280;55045;49.410;11.030;2023-08-21T03:22:00;98571.91;;;22.37;100.00
68226;BME280;55045;49.410;11.030;2023-08-21T03:25:05;98565.94;;;22.35;100.00
68226;BME280;55045;49.410;11.030;2023-08-21T03:28:10;98557.16;;;22.34;100.00
68226;BME280;55045;49.410;11.030;2023-08-21T03:34:34;98561.75;;;22.23;100.00
68226;BME280;55045;49.410;11.030;2023-08-21T03:37:38;98545.34;;;22.29;100.00
68226;BME280;55045;49.410;11.030;2023-08-21T03:40:43;98552.56;;;22.27;100.00
68226;BME280;55045;49.410;11.030;2023-08-21T03:43:47;98551.63;;;22.28;100.00
68226;BME280;55045;49.410;11.030;2023-08-21T03:46:50;98549.53;;;22.31;100.00
68226;BME280;55045;49.410;11.030;2023-08-21T03:49:55;98552.56;;;22.27;100.00
68226;BME280;55045;49.410;11.030;2023-08-21T03:53:00;98560.91;;;22.22;100.00
68226;BME280;55045;49.410;11.030;2023-08-21T03:56:04;98567.56;;;22.07;100.00
68226;BME280;55045;49.410;11.030;2023-08-21T03:59:07;98566.69;;;22.06;100.00
68226;BME280;55045;49.410;11.030;2023-08-21T04:02:10;98573.63;;;21.98;100.00
68226;BME280;55045;49.410;11.030;2023-08-21T04:05:15;98573.19;;;22.02;100.00
68226;BME280;55045;49.410;11.030;2023-08-21T04:08:18;98575.72;;;22.04;100.00
68226;BME280;55045;49.410;11.030;2023-08-21T04:11:23;98581.69;;;22.06;100.00
68226;BME280;55045;49.410;11.030;2023-08-21T04:14:26;98583.78;;;22.02;100.00
68226;BME280;55045;49.410;11.030;2023-08-21T04:17:29;98584.75;;;22.01;100.00
68226;BME280;55045;49.410;11.030;2023-08-21T04:20:35;98582.78;;;22.03;100.00
68226;BME280;55045;49.410;11.030;2023-08-21T04:23:41;98580.84;;;22.05;100.00
68226;BME280;55045;49.410;11.030;2023-08-21T04:26:47;98582.56;;;22.06;100.00
68226;BME280;55045;49.410;11.030;2023-08-21T04:29:50;98584.94;;;22.09;100.00
68226;BME280;55045;49.410;11.030;2023-08-21T04:32:53;98582.88;;;22.23;100.00
68226;BME280;55045;49.410;11.030;2023-08-21T04:35:59;98586.63;;;22.20;100.00
68226;BME280;55045;49.410;11.030;2023-08-21T04:39:05;98592.31;;;22.16;100.00
68226;BME280;55045;49.410;11.030;2023-08-21T04:42:09;98586.22;;;22.25;100.00
68226;BME280;55045;49.410;11.030;2023-08-21T04:45:13;98583.03;;;22.31;100.00
68226;BME280;55045;49.410;11.030;2023-08-21T04:48:18;98589.31;;;22.30;100.00
68226;BME280;55045;49.410;11.030;2023-08-21T04:51:25;98590.69;;;22.34;100.00
68226;BME280;55045;49.410;11.030;2023-08-21T04:54:28;98587.06;;;22.35;100.00
68226;BME280;55045;49.410;11.030;2023-08-21T04:57:31;98587.66;;;22.38;100.00
68226;BME280;55045;49.410;11.030;2023-08-21T05:00:38;98579.84;;;22.37;100.00
68226;BME280;55045;49.410;11.030;2023-08-21T05:03:42;98582.63;;;22.45;100.00
68226;BME280;55045;49.410;11.030;2023-08-21T05:06:46;98587.22;;;22.43;100.00
68226;BME280;55045;49.410;11.030;2023-08-21T05:09:49;98589.47;;;22.57;100.00
68226;BME280;55045;49.410;11.030;2023-08-21T05:12:56;98596.69;;;22.55;100.00
68226;BME280;55045;49.410;11.030;2023-08-21T05:16:01;98602.56;;;22.59;100.00
68226;BME280;55045;49.410;11.030;2023-08-21T05:19:09;98594.91;;;22.65;100.00
68226;BME280;55045;49.410;11.030;2023-08-21T05:22:13;98601.03;;;22.76;100.00
68226;BME280;55045;49.410;11.030;2023-08-21T05:25:16;98599.63;;;22.71;100.00
68226;BME280;55045;49.410;11.030;2023-08-21T05:28:20;98604.66;;;22.75;100.00
68226;BME280;55045;49.410;11.030;2023-08-21T05:31:24;98607.44;;;22.73;100.00
68226;BME280;55045;49.410;11.030;2023-08-21T05:34:29;98607.72;;;22.80;100.00
68226;BME280;55045;49.410;11.030;2023-08-21T05:37:33;98614.69;;;22.81;100.00
68226;BME280;55045;49.410;11.030;2023-08-21T05:40:40;98607.44;;;22.83;100.00
68226;BME280;55045;49.410;11.030;2023-08-21T05:43:44;98609.81;;;22.86;100.00
68226;BME280;55045;49.410;11.030;2023-08-21T05:46:48;98619.28;;;22.98;100.00
68226;BME280;55045;49.410;11.030;2023-08-21T05:49:51;98618.88;;;23.03;100.00
68226;BME280;55045;49.410;11.030;2023-08-21T05:52:57;98613.88;;;23.09;100.00
68226;BME280;55045;49.410;11.030;2023-08-21T05:56:00;98613.00;;;23.18;100.00
68226;BME280;55045;49.410;11.030;2023-08-21T05:59:04;98618.28;;;23.28;100.00
68226;BME280;55045;49.410;11.030;2023-08-21T06:02:07;98617.69;;;23.44;100.00
68226;BME280;55045;49.410;11.030;2023-08-21T06:05:11;98615.56;;;23.57;100.00
68226;BME280;55045;49.410;11.030;2023-08-21T06:08:16;98613.22;;;23.54;100.00
68226;BME280;55045;49.410;11.030;2023-08-21T06:11:20;98616.25;;;23.69;100.00
68226;BME280;55045;49.410;11.030;2023-08-21T06:14:23;98617.31;;;23.85;100.00
68226;BME280;55045;49.410;11.030;2023-08-21T06:17:34;98615.47;;;23.96;100.00
68226;BME280;55045;49.410;11.030;2023-08-21T06:20:37;98616.63;;;24.11;100.00
68226;BME280;55045;49.410;11.030;2023-08-21T06:23:42;98608.59;;;24.03;100.00
68226;BME280;55045;49.410;11.030;2023-08-21T06:26:47;98614.94;;;23.92;100.00
68226;BME280;55045;49.410;11.030;2023-08-21T06:29:50;98629.88;;;23.83;100.00
68226;BME280;55045;49.410;11.030;2023-08-21T06:32:54;98622.72;;;23.94;100.00
68226;BME280;55045;49.410;11.030;2023-08-21T06:35:59;98620.09;;;23.94;100.00
68226;BME280;55045;49.410;11.030;2023-08-21T06:39:05;98610.78;;;23.80;100.00
68226;BME280;55045;49.410;11.030;2023-08-21T06:42:08;98621.94;;;23.83;100.00
68226;BME280;55045;49.410;11.030;2023-08-21T06:45:17;98624.28;;;23.87;100.00
68226;BME280;55045;49.410;11.030;2023-08-21T06:48:21;98631.38;;;23.96;100.00
68226;BME280;55045;49.410;11.030;2023-08-21T06:51:25;98626.34;;;24.20;100.00
68226;BME280;55045;49.410;11.030;2023-08-21T06:54:29;98618.47;;;24.38;100.00
68226;BME280;55045;49.410;11.030;2023-08-21T06:57:35;98614.78;;;24.49;100.00
68226;BME280;55045;49.410;11.030;2023-08-21T07:00:39;98608.97;;;24.63;100.00
68226;BME280;55045;49.410;11.030;2023-08-21T07:03:42;98611.63;;;24.81;100.00
68226;BME280;55045;49.410;11.030;2023-08-21T07:06:46;98613.81;;;25.03;100.00
68226;BME280;55045;49.410;11.030;2023-08-21T07:09:50;98601.16;;;25.15;100.00
68226;BME280;55045;49.410;11.030;2023-08-21T07:12:54;98606.69;;;25.47;100.00
68226;BME280;55045;49.410;11.030;2023-08-21T07:15:57;98605.81;;;25.65;100.00
68226;BME280;55045;49.410;11.030;2023-08-21T07:19:00;98609.97;;;25.93;100.00
68226;BME280;55045;49.410;11.030;2023-08-21T07:22:05;98613.66;;;26.00;100.00
68226;BME280;55045;49.410;11.030;2023-08-21T07:25:09;98614.38;;;26.10;100.00
68226;BME280;55045;49.410;11.030;2023-08-21T07:28:13;98613.72;;;26.17;100.00
68226;BME280;55045;49.410;11.030;2023-08-21T07:31:16;98616.94;;;26.28;100.00
68226;BME280;55045;49.410;11.030;2023-08-21T07:34:27;98612.84;;;26.42;100.00
68226;BME280;55045;49.410;11.030;2023-08-21T07:37:31;98612.22;;;26.64;100.00
68226;BME280;55045;49.410;11.030;2023-08-21T07:40:35;98615.56;;;26.75;100.00
68226;BME280;55045;49.410;11.030;2023-08-21T07:43:40;98612.91;;;26.91;100.00
68226;BME280;55045;49.410;11.030;2023-08-21T07:46:43;98612.59;;;26.78;100.00
68226;BME280;55045;49.410;11.030;2023-08-21T07:49:46;98606.25;;;26.79;100.00
68226;BME280;55045;49.410;11.030;2023-08-21T07:52:49;98617.94;;;27.10;100.00
68226;BME280;55045;49.410;11.030;2023-08-21T07:55:54;98615.59;;;26.99;100.00
68226;BME280;55045;49.410;11.030;2023-08-21T07:58:57;98618.44;;;27.14;100.00
68226;BME280;55045;49.410;11.030;2023-08-21T08:02:00;98614.28;;;27.11;100.00
68226;BME280;55045;49.410;11.030;2023-08-21T08:05:06;98610.94;;;27.34;100.00
68226;BME280;55045;49.410;11.030;2023-08-21T08:08:09;98617.25;;;27.41;100.00
68226;BME280;55045;49.410;11.030;2023-08-21T08:11:14;98619.59;;;27.44;100.00
68226;BME280;55045;49.410;11.030;2023-08-21T08:14:17;98615.44;;;27.33;100.00
68226;BME280;55045;49.410;11.030;2023-08-21T08:17:21;98617.22;;;27.73;100.00
68226;BME280;55045;49.410;11.030;2023-08-21T08:20:24;98615.03;;;27.85;100.00
68226;BME280;55045;49.410;11.030;2023-08-21T08:23:27;98618.16;;;27.89;100.00
68226;BME280;55045;49.410;11.030;2023-08-21T08:26:32;98615.44;;;28.05;100.00
68226;BME280;55045;49.410;11.030;2023-08-21T08:29:35;98606.78;;;28.11;100.00
68226;BME280;55045;49.410;11.030;2023-08-21T08:32:40;98613.69;;;28.28;100.00
68226;BME280;55045;49.410;11.030;2023-08-21T08:35:47;98596.81;;;28.67;100.00
68226;BME280;55045;49.410;11.030;2023-08-21T08:38:50;98604.75;;;28.75;100.00
68226;BME280;55045;49.410;11.030;2023-08-21T08:41:57;98614.19;;;28.63;100.00
68226;BME280;55045;49.410;11.030;2023-08-21T08:45:03;98613.41;;;28.54;100.00
68226;BME280;55045;49.410;11.030;2023-08-21T08:48:07;98615.53;;;28.59;100.00
68226;BME280;55045;49.410;11.030;2023-08-21T08:51:11;98611.84;;;28.60;100.00
68226;BME280;55045;49.410;11.030;2023-08-21T08:54:16;98615.44;;;28.75;100.00
68226;BME280;55045;49.410;11.030;2023-08-21T08:57:21;98609.38;;;28.81;100.00
68226;BME280;55045;49.410;11.030;2023-08-21T09:00:25;98605.41;;;28.77;100.00
68226;BME280;55045;49.410;11.030;2023-08-21T09:03:29;98606.63;;;28.97;100.00
68226;BME280;55045;49.410;11.030;2023-08-21T09:06:32;98602.94;;;28.98;100.00
68226;BME280;55045;49.410;11.030;2023-08-21T09:09:38;98603.75;;;28.99;100.00
68226;BME280;55045;49.410;11.030;2023-08-21T09:12:45;98601.47;;;28.96;100.00
68226;BME280;55045;49.410;11.030;2023-08-21T09:15:53;98608.03;;;29.08;100.00
68226;BME280;55045;49.410;11.030;2023-08-21T09:18:57;98604.22;;;29.40;100.00
68226;BME280;55045;49.410;11.030;2023-08-21T09:22:08;98605.50;;;29.67;100.00
68226;BME280;55045;49.410;11.030;2023-08-21T09:25:11;98606.47;;;29.51;100.00
68226;BME280;55045;49.410;11.030;2023-08-21T09:28:19;98602.94;;;29.36;100.00
68226;BME280;55045;49.410;11.030;2023-08-21T09:34:35;98596.78;;;29.36;100.00
68226;BME280;55045;49.410;11.030;2023-08-21T09:37:38;98595.06;;;29.58;100.00
68226;BME280;55045;49.410;11.030;2023-08-21T09:40:44;98597.00;;;29.78;100.00
68226;BME280;55045;49.410;11.030;2023-08-21T09:43:52;98595.00;;;29.66;100.00
68226;BME280;55045;49.410;11.030;2023-08-21T09:46:55;98595.25;;;29.71;100.00
68226;BME280;55045;49.410;11.030;2023-08-21T09:50:00;98591.38;;;29.88;100.00
68226;BME280;55045;49.410;11.030;2023-08-21T09:53:06;98584.13;;;29.67;100.00
68226;BME280;55045;49.410;11.030;2023-08-21T09:56:25;98586.19;;;30.01;100.00
68226;BME280;55045;49.410;11.030;2023-08-21T09:59:29;98584.63;;;30.36;100.00
68226;BME280;55045;49.410;11.030;2023-08-21T10:02:32;98585.13;;;30.10;100.00
68226;BME280;55045;49.410;11.030;2023-08-21T10:05:38;98579.47;;;30.35;100.00
68226;BME280;55045;49.410;11.030;2023-08-21T10:08:42;98575.75;;;30.36;95.42
68226;BME280;55045;49.410;11.030;2023-08-21T10:11:48;98564.69;;;30.60;96.91
68226;BME280;55045;49.410;11.030;2023-08-21T10:14:53;98566.47;;;30.53;92.76
68226;BME280;55045;49.410;11.030;2023-08-21T10:18:18;98568.91;;;30.33;88.46
68226;BME280;55045;49.410;11.030;2023-08-21T10:21:23;98547.50;;;30.33;89.80
68226;BME280;55045;49.410;11.030;2023-08-21T10:24:33;98557.88;;;30.22;86.18
68226;BME280;55045;49.410;11.030;2023-08-21T10:27:38;98554.84;;;30.25;91.87
68226;BME280;55045;49.410;11.030;2023-08-21T10:30:41;98557.34;;;30.26;94.40
68226;BME280;55045;49.410;11.030;2023-08-21T10:33:47;98559.19;;;30.26;94.23
68226;BME280;55045;49.410;11.030;2023-08-21T10:37:10;98553.53;;;30.35;92.67
68226;BME280;55045;49.410;11.030;2023-08-21T10:40:22;98551.97;;;30.26;90.97
68226;BME280;55045;49.410;11.030;2023-08-21T10:43:37;98545.38;;;30.65;94.17
68226;BME280;55045;49.410;11.030;2023-08-21T10:46:50;98554.81;;;30.82;95.00
68226;BME280;55045;49.410;11.030;2023-08-21T10:49:55;98547.19;;;30.79;93.93
68226;BME280;55045;49.410;11.030;2023-08-21T10:53:00;98551.25;;;30.75;87.74
68226;BME280;55045;49.410;11.030;2023-08-21T10:56:04;98552.94;;;31.04;85.27
68226;BME280;55045;49.410;11.030;2023-08-21T10:59:07;98550.59;;;30.94;91.93
68226;BME280;55045;49.410;11.030;2023-08-21T11:02:14;98545.25;;;30.94;88.08
68226;BME280;55045;49.410;11.030;2023-08-21T11:05:17;98544.91;;;31.04;87.83
68226;BME280;55045;49.410;11.030;2023-08-21T11:08:22;98535.75;;;30.92;91.29
68226;BME280;55045;49.410;11.030;2023-08-21T11:11:25;98531.63;;;30.89;87.33
68226;BME280;55045;49.410;11.030;2023-08-21T11:14:28;98533.28;;;31.18;85.30
68226;BME280;55045;49.410;11.030;2023-08-21T11:17:31;98539.31;;;31.20;88.56
68226;BME280;55045;49.410;11.030;2023-08-21T11:20:36;98528.81;;;31.25;87.97
68226;BME280;55045;49.410;11.030;2023-08-21T11:23:41;98535.97;;;31.18;87.94
68226;BME280;55045;49.410;11.030;2023-08-21T11:26:47;98530.78;;;31.45;90.14
68226;BME280;55045;49.410;11.030;2023-08-21T11:29:52;98530.13;;;31.08;86.39
68226;BME280;55045;49.410;11.030;2023-08-21T11:33:05;98523.47;;;31.04;87.39
68226;BME280;55045;49.410;11.030;2023-08-21T11:36:08;98519.63;;;31.13;88.86
68226;BME280;55045;49.410;11.030;2023-08-21T11:39:13;98524.00;;;30.93;87.16
68226;BME280;55045;49.410;11.030;2023-08-21T11:42:18;98520.59;;;30.78;89.16
68226;BME280;55045;49.410;11.030;2023-08-21T11:45:22;98527.56;;;31.00;87.43
68226;BME280;55045;49.410;11.030;2023-08-21T11:48:26;98524.38;;;31.11;89.39
68226;BME280;55045;49.410;11.030;2023-08-21T11:51:29;98519.00;;;31.11;87.53
68226;BME280;55045;49.410;11.030;2023-08-21T11:54:34;98522.44;;;31.27;89.03
68226;BME280;55045;49.410;11.030;2023-08-21T11:57:46;98515.13;;;31.42;91.31
68226;BME280;55045;49.410;11.030;2023-08-21T12:00:50;98521.25;;;31.70;88.51
68226;BME280;55045;49.410;11.030;2023-08-21T12:03:56;98524.50;;;31.59;88.48
68226;BME280;55045;49.410;11.030;2023-08-21T12:06:59;98526.47;;;31.44;86.90
68226;BME280;55045;49.410;11.030;2023-08-21T12:10:05;98521.16;;;31.50;88.36
68226;BME280;55045;49.410;11.030;2023-08-21T12:13:08;98525.16;;;31.68;86.87
68226;BME280;55045;49.410;11.030;2023-08-21T12:16:12;98520.34;;;31.91;87.77
68226;BME280;55045;49.410;11.030;2023-08-21T12:19:18;98514.13;;;31.84;85.62
68226;BME280;55045;49.410;11.030;2023-08-21T12:22:21;98514.72;;;31.79;86.46
68226;BME280;55045;49.410;11.030;2023-08-21T12:25:28;98513.44;;;31.75;84.95
68226;BME280;55045;49.410;11.030;2023-08-21T12:28:33;98522.31;;;31.76;82.31
68226;BME280;55045;49.410;11.030;2023-08-21T12:31:37;98517.34;;;31.73;83.79
68226;BME280;55045;49.410;11.030;2023-08-21T12:34:40;98513.16;;;31.64;81.40
68226;BME280;55045;49.410;11.030;2023-08-21T12:37:43;98506.97;;;31.63;82.17
68226;BME280;55045;49.410;11.030;2023-08-21T12:40:48;98509.75;;;31.76;82.30
68226;BME280;55045;49.410;11.030;2023-08-21T12:43:51;98510.91;;;32.15;81.96
68226;BME280;55045;49.410;11.030;2023-08-21T12:46:54;98511.63;;;31.83;79.92
68226;BME280;55045;49.410;11.030;2023-08-21T12:49:58;98515.03;;;31.63;83.65
68226;BME280;55045;49.410;11.030;2023-08-21T12:53:01;98509.75;;;31.76;84.42
68226;BME280;55045;49.410;11.030;2023-08-21T12:56:06;98507.50;;;31.80;82.25
68226;BME280;55045;49.410;11.030;2023-08-21T12:59:09;98499.72;;;31.92;80.33
68226;BME280;55045;49.410;11.030;2023-08-21T13:02:12;98502.22;;;32.06;84.49
68226;BME280;55045;49.410;11.030;2023-08-21T13:05:16;98502.44;;;32.18;86.42
68226;BME280;55045;49.410;11.030;2023-08-21T13:08:19;98502.91;;;32.22;81.15
68226;BME280;55045;49.410;11.030;2023-08-21T13:11:23;98501.19;;;32.01;82.24
68226;BME280;55045;49.410;11.030;2023-08-21T13:14:27;98501.25;;;31.73;81.62
68226;BME280;55045;49.410;11.030;2023-08-21T13:17:33;98498.06;;;31.56;81.63
68226;BME280;55045;49.410;11.030;2023-08-21T13:20:37;98488.13;;;31.78;80.79
68226;BME280;55045;49.410;11.030;2023-08-21T13:23:40;98486.16;;;31.65;81.67
68226;BME280;55045;49.410;11.030;2023-08-21T13:26:48;98487.97;;;32.06;81.59
68226;BME280;55045;49.410;11.030;2023-08-21T13:29:52;98483.13;;;32.29;80.35
68226;BME280;55045;49.410;11.030;2023-08-21T13:32:55;98482.38;;;31.94;77.90
68226;BME280;55045;49.410;11.030;2023-08-21T13:35:58;98463.47;;;32.22;83.35
68226;BME280;55045;49.410;11.030;2023-08-21T13:39:01;98467.16;;;32.28;79.98
68226;BME280;55045;49.410;11.030;2023-08-21T13:42:09;98469.25;;;32.19;75.89
68226;BME280;55045;49.410;11.030;2023-08-21T13:45:13;98466.13;;;32.09;75.49
68226;BME280;55045;49.410;11.030;2023-08-21T13:48:19;98454.38;;;32.23;82.50
68226;BME280;55045;49.410;11.030;2023-08-21T13:51:22;98454.34;;;32.03;74.31
68226;BME280;55045;49.410;11.030;2023-08-21T13:54:26;98450.47;;;32.19;75.53
68226;BME280;55045;49.410;11.030;2023-08-21T13:57:31;98452.75;;;32.29;75.37
68226;BME280;55045;49.410;11.030;2023-08-21T14:00:34;98450.69;;;32.37;74.54
68226;BME280;55045;49.410;11.030;2023-08-21T14:03:37;98442.59;;;32.18;75.91
68226;BME280;55045;49.410;11.030;2023-08-21T14:06:41;98438.69;;;32.20;77.12
68226;BME280;55045;49.410;11.030;2023-08-21T14:09:44;98432.53;;;32.33;76.00
68226;BME280;55045;49.410;11.030;2023-08-21T14:12:49;98446.53;;;32.28;81.38
68226;BME280;55045;49.410;11.030;2023-08-21T14:15:53;98439.09;;;32.17;77.04
68226;BME280;55045;49.410;11.030;2023-08-21T14:18:56;98435.59;;;32.10;74.07
68226;BME280;55045;49.410;11.030;2023-08-21T14:21:59;98433.72;;;32.17;75.00
68226;BME280;55045;49.410;11.030;2023-08-21T14:25:03;98428.78;;;32.21;73.46
68226;BME280;55045;49.410;11.030;2023-08-21T14:28:09;98430.00;;;32.12;76.50
68226;BME280;55045;49.410;11.030;2023-08-21T14:31:12;98425.47;;;32.12;78.56
68226;BME280;55045;49.410;11.030;2023-08-21T14:34:15;98428.38;;;32.24;77.85
68226;BME280;55045;49.410;11.030;2023-08-21T14:37:18;98427.91;;;32.07;75.04
68226;BME280;55045;49.410;11.030;2023-08-21T14:40:22;98429.28;;;31.76;79.59
68226;BME280;55045;49.410;11.030;2023-08-21T14:43:29;98426.13;;;31.60;75.76
68226;BME280;55045;49.410;11.030;2023-08-21T14:46:34;98418.09;;;31.66;77.59
68226;BME280;55045;49.410;11.030;2023-08-21T14:49:44;98417.47;;;31.64;74.83
68226;BME280;55045;49.410;11.030;2023-08-21T14:52:47;98413.03;;;31.98;80.93
68226;BME280;55045;49.410;11.030;2023-08-21T14:55:51;98406.66;;;31.92;80.44
68226;BME280;55045;49.410;11.030;2023-08-21T14:58:56;98405.41;;;31.95;81.57
68226;BME280;55045;49.410;11.030;2023-08-21T15:01:59;98413.03;;;31.85;77.98
68226;BME280;55045;49.410;11.030;2023-08-21T15:05:02;98416.31;;;31.87;77.41
68226;BME280;55045;49.410;11.030;2023-08-21T15:08:07;98408.94;;;31.89;82.76
68226;BME280;55045;49.410;11.030;2023-08-21T15:11:11;98406.69;;;31.99;80.08
68226;BME280;55045;49.410;11.030;2023-08-21T15:14:16;98405.19;;;31.96;79.79
68226;BME280;55045;49.410;11.030;2023-08-21T15:17:19;98403.31;;;31.84;80.28
68226;BME280;55045;49.410;11.030;2023-08-21T15:20:22;98414.22;;;31.75;80.79
68226;BME280;55045;49.410;11.030;2023-08-21T15:23:25;98407.34;;;31.66;84.88
68226;BME280;55045;49.410;11.030;2023-08-21T15:26:28;98406.47;;;31.46;76.23
68226;BME280;55045;49.410;11.030;2023-08-21T15:29:33;98408.41;;;31.59;81.63
68226;BME280;55045;49.410;11.030;2023-08-21T15:34:34;98404.66;;;31.53;83.98
68226;BME280;55045;49.410;11.030;2023-08-21T15:37:37;98401.38;;;31.58;85.50
68226;BME280;55045;49.410;11.030;2023-08-21T15:40:40;98402.66;;;31.68;83.14
68226;BME280;55045;49.410;11.030;2023-08-21T15:43:46;98401.16;;;31.59;81.43
68226;BME280;55045;49.410;11.030;2023-08-21T15:46:49;98389.84;;;31.64;81.68
68226;BME280;55045;49.410;11.030;2023-08-21T15:50:14;98391.47;;;31.65;84.15
68226;BME280;55045;49.410;11.030;2023-08-21T15:53:17;98390.88;;;31.63;78.38
68226;BME280;55045;49.410;11.030;2023-08-21T15:56:20;98392.69;;;31.56;81.45
68226;BME280;55045;49.410;11.030;2023-08-21T15:59:23;98386.66;;;31.47;79.95
68226;BME280;55045;49.410;11.030;2023-08-21T16:02:26;98387.50;;;31.41;78.73
68226;BME280;55045;49.410;11.030;2023-08-21T16:05:31;98383.00;;;31.48;80.83